sensor_id;sensor_type;location;lat;lon;timestamp;P1;durP1;ratioP1;P2;durP2;ratioP2
66189;SDS011;52992;52.084;5.412;2022-09-09T00:01:08;4.50;;;2.30;;
66189;SDS011;52992;52.084;5.412;2022-09-09T00:09:25;3.10;;;1.53;;
66189;SDS011;52992;52.084;5.412;2022-09-09T00:11:56;1.60;;;1.50;;
66189;SDS011;52992;52.084;5.412;2022-09-09T00:14:35;9.60;;;2.23;;
66189;SDS011;52992;52.084;5.412;2022-09-09T00:17:08;1.97;;;1.80;;
66189;SDS011;52992;52.084;5.412;2022-09-09T00:19:42;4.03;;;2.23;;
66189;SDS011;52992;52.084;5.412;2022-09-09T00:22:17;2.03;;;1.83;;
66189;SDS011;52992;52.084;5.412;2022-09-09T00:24:53;2.30;;;1.97;;
66189;SDS011;52992;52.084;5.412;2022-09-09T00:29:53;2.70;;;2.17;;
66189;SDS011;52992;52.084;5.412;2022-09-09T00:32:22;4.17;;;2.70;;
66189;SDS011;52992;52.084;5.412;2022-09-09T00:35:00;3.67;;;2.53;;
66189;SDS011;52992;52.084;5.412;2022-09-09T00:37:52;4.13;;;2.97;;
66189;SDS011;52992;52.084;5.412;2022-09-09T00:43:10;3.80;;;2.73;;
66189;SDS011;52992;52.084;5.412;2022-09-09T00:46:08;5.07;;;3.00;;
66189;SDS011;52992;52.084;5.412;2022-09-09T00:51:25;5.00;;;2.90;;
66189;SDS011;52992;52.084;5.412;2022-09-09T00:56:47;3.40;;;3.10;;
66189;SDS011;52992;52.084;5.412;2022-09-09T00:59:35;7.33;;;3.60;;
66189;SDS011;52992;52.084;5.412;2022-09-09T01:02:25;4.53;;;2.90;;
66189;SDS011;52992;52.084;5.412;2022-09-09T01:04:56;4.50;;;3.00;;
66189;SDS011;52992;52.084;5.412;2022-09-09T01:07:28;3.43;;;2.80;;
66189;SDS011;52992;52.084;5.412;2022-09-09T01:10:03;4.80;;;2.80;;
66189;SDS011;52992;52.084;5.412;2022-09-09T01:12:42;5.93;;;2.53;;
66189;SDS011;52992;52.084;5.412;2022-09-09T01:15:17;5.03;;;2.90;;
66189;SDS011;52992;52.084;5.412;2022-09-09T01:17:52;4.50;;;2.80;;
66189;SDS011;52992;52.084;5.412;2022-09-09T01:20:27;3.10;;;2.80;;
66189;SDS011;52992;52.084;5.412;2022-09-09T01:26:26;3.53;;;2.70;;
66189;SDS011;52992;52.084;5.412;2022-09-09T01:29:01;3.70;;;3.33;;
66189;SDS011;52992;52.084;5.412;2022-09-09T01:31:38;4.53;;;3.23;;
66189;SDS011;52992;52.084;5.412;2022-09-09T01:34:09;4.40;;;3.70;;
66189;SDS011;52992;52.084;5.412;2022-09-09T01:36:49;5.20;;;3.73;;
66189;SDS011;52992;52.084;5.412;2022-09-09T01:39:25;6.97;;;3.17;;
66189;SDS011;52992;52.084;5.412;2022-09-09T01:42:00;6.87;;;3.73;;
66189;SDS011;52992;52.084;5.412;2022-09-09T01:44:27;5.73;;;3.87;;
66189;SDS011;52992;52.084;5.412;2022-09-09T01:46:56;6.03;;;3.40;;
66189;SDS011;52992;52.084;5.412;2022-09-09T01:49:23;8.40;;;3.87;;
66189;SDS011;52992;52.084;5.412;2022-09-09T01:51:52;5.70;;;3.43;;
66189;SDS011;52992;52.084;5.412;2022-09-09T01:54:30;4.97;;;3.60;;
66189;SDS011;52992;52.084;5.412;2022-09-09T01:57:08;4.93;;;3.47;;
66189;SDS011;52992;52.084;5.412;2022-09-09T01:59:44;5.23;;;3.30;;
66189;SDS011;52992;52.084;5.412;2022-09-09T02:02:18;6.10;;;4.80;;
66189;SDS011;52992;52.084;5.412;2022-09-09T02:13:57;3.80;;;3.03;;
66189;SDS011;52992;52.084;5.412;2022-09-09T02:16:56;8.40;;;3.53;;
66189;SDS011;52992;52.084;5.412;2022-09-09T02:19:48;4.93;;;3.30;;
66189;SDS011;52992;52.084;5.412;2022-09-09T02:22:41;6.27;;;3.90;;
66189;SDS011;52992;52.084;5.412;2022-09-09T02:25:13;6.17;;;3.40;;
66189;SDS011;52992;52.084;5.412;2022-09-09T02:27:43;4.73;;;3.30;;
66189;SDS011;52992;52.084;5.412;2022-09-09T02:30:13;9.03;;;3.43;;
66189;SDS011;52992;52.084;5.412;2022-09-09T02:32:47;7.93;;;3.87;;
66189;SDS011;52992;52.084;5.412;2022-09-09T02:35:21;6.47;;;3.80;;
66189;SDS011;52992;52.084;5.412;2022-09-09T02:37:51;6.47;;;4.30;;
66189;SDS011;52992;52.084;5.412;2022-09-09T02:40:22;6.17;;;4.67;;
66189;SDS011;52992;52.084;5.412;2022-09-09T02:42:56;6.07;;;3.90;;
66189;SDS011;52992;52.084;5.412;2022-09-09T02:45:25;4.80;;;3.90;;
66189;SDS011;52992;52.084;5.412;2022-09-09T02:50:57;8.20;;;3.90;;
66189;SDS011;52992;52.084;5.412;2022-09-09T02:53:41;5.83;;;4.10;;
66189;SDS011;52992;52.084;5.412;2022-09-09T02:56:22;6.50;;;4.07;;
66189;SDS011;52992;52.084;5.412;2022-09-09T02:58:54;9.23;;;4.00;;
66189;SDS011;52992;52.084;5.412;2022-09-09T03:01:23;6.63;;;4.83;;
66189;SDS011;52992;52.084;5.412;2022-09-09T03:03:50;5.23;;;4.20;;
66189;SDS011;52992;52.084;5.412;2022-09-09T03:06:17;5.90;;;4.50;;
66189;SDS011;52992;52.084;5.412;2022-09-09T03:08:49;5.47;;;4.17;;
66189;SDS011;52992;52.084;5.412;2022-09-09T03:11:21;6.67;;;4.87;;
66189;SDS011;52992;52.084;5.412;2022-09-09T03:13:48;6.93;;;4.83;;
66189;SDS011;52992;52.084;5.412;2022-09-09T03:16:15;5.90;;;4.30;;
66189;SDS011;52992;52.084;5.412;2022-09-09T03:18:46;9.23;;;4.73;;
66189;SDS011;52992;52.084;5.412;2022-09-09T03:21:13;5.17;;;4.50;;
66189;SDS011;52992;52.084;5.412;2022-09-09T03:23:40;5.57;;;4.17;;
66189;SDS011;52992;52.084;5.412;2022-09-09T03:26:07;6.70;;;4.73;;
66189;SDS011;52992;52.084;5.412;2022-09-09T03:28:41;9.47;;;4.63;;
66189;SDS011;52992;52.084;5.412;2022-09-09T03:31:09;8.03;;;5.00;;
66189;SDS011;52992;52.084;5.412;2022-09-09T03:33:39;5.90;;;4.77;;
66189;SDS011;52992;52.084;5.412;2022-09-09T03:36:10;5.60;;;4.43;;
66189;SDS011;52992;52.084;5.412;2022-09-09T03:38:37;7.23;;;4.60;;
66189;SDS011;52992;52.084;5.412;2022-09-09T03:41:05;6.87;;;4.67;;
66189;SDS011;52992;52.084;5.412;2022-09-09T03:43:32;8.20;;;4.17;;
66189;SDS011;52992;52.084;5.412;2022-09-09T03:45:59;7.47;;;4.47;;
66189;SDS011;52992;52.084;5.412;2022-09-09T03:48:28;5.83;;;4.97;;
66189;SDS011;52992;52.084;5.412;2022-09-09T03:50:55;7.87;;;4.97;;
66189;SDS011;52992;52.084;5.412;2022-09-09T03:53:24;6.87;;;4.57;;
66189;SDS011;52992;52.084;5.412;2022-09-09T03:55:52;6.37;;;5.27;;
66189;SDS011;52992;52.084;5.412;2022-09-09T03:58:23;6.63;;;4.10;;
66189;SDS011;52992;52.084;5.412;2022-09-09T04:00:56;8.67;;;4.70;;
66189;SDS011;52992;52.084;5.412;2022-09-09T04:03:25;5.97;;;4.73;;
66189;SDS011;52992;52.084;5.412;2022-09-09T04:05:54;5.87;;;4.60;;
66189;SDS011;52992;52.084;5.412;2022-09-09T04:08:24;5.43;;;4.37;;
66189;SDS011;52992;52.084;5.412;2022-09-09T04:10:53;8.27;;;4.70;;
66189;SDS011;52992;52.084;5.412;2022-09-09T04:13:25;5.60;;;4.30;;
66189;SDS011;52992;52.084;5.412;2022-09-09T04:15:54;7.53;;;4.57;;
66189;SDS011;52992;52.084;5.412;2022-09-09T04:18:23;8.60;;;4.70;;
66189;SDS011;52992;52.084;5.412;2022-09-09T04:20:51;7.13;;;4.40;;
66189;SDS011;52992;52.084;5.412;2022-09-09T04:23:21;5.73;;;3.80;;
66189;SDS011;52992;52.084;5.412;2022-09-09T04:25:51;8.03;;;4.20;;
66189;SDS011;52992;52.084;5.412;2022-09-09T04:28:19;7.53;;;4.13;;
66189;SDS011;52992;52.084;5.412;2022-09-09T04:30:48;5.00;;;4.17;;
66189;SDS011;52992;52.084;5.412;2022-09-09T04:33:15;6.23;;;4.33;;
66189;SDS011;52992;52.084;5.412;2022-09-09T04:35:44;6.87;;;4.40;;
66189;SDS011;52992;52.084;5.412;2022-09-09T04:38:14;6.40;;;4.33;;
66189;SDS011;52992;52.084;5.412;2022-09-09T04:40:42;7.03;;;4.27;;
66189;SDS011;52992;52.084;5.412;2022-09-09T04:43:13;7.60;;;4.20;;
66189;SDS011;52992;52.084;5.412;2022-09-09T04:45:47;8.33;;;4.47;;
66189;SDS011;52992;52.084;5.412;2022-09-09T04:48:15;5.50;;;4.40;;
66189;SDS011;52992;52.084;5.412;2022-09-09T04:50:42;4.73;;;4.17;;
66189;SDS011;52992;52.084;5.412;2022-09-09T04:53:11;6.93;;;4.47;;
66189;SDS011;52992;52.084;5.412;2022-09-09T04:55:38;8.73;;;4.20;;
66189;SDS011;52992;52.084;5.412;2022-09-09T04:58:06;6.30;;;3.87;;
66189;SDS011;52992;52.084;5.412;2022-09-09T05:00:34;5.83;;;4.23;;
66189;SDS011;52992;52.084;5.412;2022-09-09T05:03:04;7.37;;;4.03;;
66189;SDS011;52992;52.084;5.412;2022-09-09T05:05:33;8.00;;;4.13;;
66189;SDS011;52992;52.084;5.412;2022-09-09T05:08:03;5.53;;;3.83;;
66189;SDS011;52992;52.084;5.412;2022-09-09T05:10:32;5.50;;;4.47;;
66189;SDS011;52992;52.084;5.412;2022-09-09T05:12:59;7.00;;;4.47;;
66189;SDS011;52992;52.084;5.412;2022-09-09T05:15:28;8.83;;;3.87;;
66189;SDS011;52992;52.084;5.412;2022-09-09T05:17:59;8.33;;;4.17;;
66189;SDS011;52992;52.084;5.412;2022-09-09T05:20:29;6.60;;;3.80;;
66189;SDS011;52992;52.084;5.412;2022-09-09T05:22:56;6.93;;;4.10;;
66189;SDS011;52992;52.084;5.412;2022-09-09T05:25:27;8.43;;;3.97;;
66189;SDS011;52992;52.084;5.412;2022-09-09T05:27:54;6.47;;;4.23;;
66189;SDS011;52992;52.084;5.412;2022-09-09T05:30:21;17.27;;;4.37;;
66189;SDS011;52992;52.084;5.412;2022-09-09T05:32:55;5.57;;;3.73;;
66189;SDS011;52992;52.084;5.412;2022-09-09T05:35:22;4.73;;;3.80;;
66189;SDS011;52992;52.084;5.412;2022-09-09T05:37:49;5.60;;;3.83;;
66189;SDS011;52992;52.084;5.412;2022-09-09T05:40:16;5.17;;;3.70;;
66189;SDS011;52992;52.084;5.412;2022-09-09T05:42:43;5.43;;;3.67;;
66189;SDS011;52992;52.084;5.412;2022-09-09T05:45:10;11.50;;;3.67;;
66189;SDS011;52992;52.084;5.412;2022-09-09T05:47:38;9.63;;;4.00;;
66189;SDS011;52992;52.084;5.412;2022-09-09T05:50:08;5.00;;;3.67;;
66189;SDS011;52992;52.084;5.412;2022-09-09T05:52:35;5.80;;;3.77;;
66189;SDS011;52992;52.084;5.412;2022-09-09T05:55:03;6.40;;;3.73;;
66189;SDS011;52992;52.084;5.412;2022-09-09T05:57:31;5.63;;;3.33;;
66189;SDS011;52992;52.084;5.412;2022-09-09T05:59:58;7.70;;;3.30;;
66189;SDS011;52992;52.084;5.412;2022-09-09T06:02:25;5.50;;;3.33;;
66189;SDS011;52992;52.084;5.412;2022-09-09T06:04:53;7.70;;;3.87;;
66189;SDS011;52992;52.084;5.412;2022-09-09T06:07:26;8.43;;;3.97;;
66189;SDS011;52992;52.084;5.412;2022-09-09T06:09:53;5.57;;;3.50;;
66189;SDS011;52992;52.084;5.412;2022-09-09T06:12:20;5.47;;;3.20;;
66189;SDS011;52992;52.084;5.412;2022-09-09T06:14:47;6.90;;;4.10;;
66189;SDS011;52992;52.084;5.412;2022-09-09T06:17:14;8.13;;;3.80;;
66189;SDS011;52992;52.084;5.412;2022-09-09T06:19:41;7.97;;;3.93;;
66189;SDS011;52992;52.084;5.412;2022-09-09T06:22:07;6.63;;;3.27;;
66189;SDS011;52992;52.084;5.412;2022-09-09T06:24:38;8.47;;;3.63;;
66189;SDS011;52992;52.084;5.412;2022-09-09T06:27:06;4.23;;;3.47;;
66189;SDS011;52992;52.084;5.412;2022-09-09T06:29:35;4.60;;;3.50;;
66189;SDS011;52992;52.084;5.412;2022-09-09T06:32:02;10.97;;;3.73;;
66189;SDS011;52992;52.084;5.412;2022-09-09T06:34:30;6.73;;;3.60;;
66189;SDS011;52992;52.084;5.412;2022-09-09T06:36:58;7.70;;;3.73;;
66189;SDS011;52992;52.084;5.412;2022-09-09T06:39:31;6.60;;;3.50;;
66189;SDS011;52992;52.084;5.412;2022-09-09T06:41:58;5.10;;;2.93;;
66189;SDS011;52992;52.084;5.412;2022-09-09T06:44:43;9.47;;;3.43;;
66189;SDS011;52992;52.084;5.412;2022-09-09T06:47:17;6.33;;;3.27;;
66189;SDS011;52992;52.084;5.412;2022-09-09T06:49:45;7.70;;;3.63;;
66189;SDS011;52992;52.084;5.412;2022-09-09T06:52:14;8.80;;;3.43;;
66189;SDS011;52992;52.084;5.412;2022-09-09T06:54:43;6.33;;;3.30;;
66189;SDS011;52992;52.084;5.412;2022-09-09T06:57:12;7.87;;;2.93;;
66189;SDS011;52992;52.084;5.412;2022-09-09T07:00:00;6.10;;;3.30;;
66189;SDS011;52992;52.084;5.412;2022-09-09T07:02:28;7.07;;;3.10;;
66189;SDS011;52992;52.084;5.412;2022-09-09T07:04:56;5.50;;;3.13;;
66189;SDS011;52992;52.084;5.412;2022-09-09T07:07:24;12.63;;;3.47;;
66189;SDS011;52992;52.084;5.412;2022-09-09T07:09:51;9.73;;;3.30;;
66189;SDS011;52992;52.084;5.412;2022-09-09T07:12:19;5.93;;;3.60;;
66189;SDS011;52992;52.084;5.412;2022-09-09T07:14:53;5.43;;;3.13;;
66189;SDS011;52992;52.084;5.412;2022-09-09T07:17:23;8.20;;;2.70;;
66189;SDS011;52992;52.084;5.412;2022-09-09T07:19:50;10.70;;;3.27;;
66189;SDS011;52992;52.084;5.412;2022-09-09T07:22:17;8.70;;;3.30;;
66189;SDS011;52992;52.084;5.412;2022-09-09T07:24:44;7.03;;;3.33;;
66189;SDS011;52992;52.084;5.412;2022-09-09T07:27:12;6.90;;;3.47;;
66189;SDS011;52992;52.084;5.412;2022-09-09T07:29:40;6.77;;;2.93;;
66189;SDS011;52992;52.084;5.412;2022-09-09T07:32:08;6.80;;;2.80;;
66189;SDS011;52992;52.084;5.412;2022-09-09T07:34:36;4.33;;;2.77;;
66189;SDS011;52992;52.084;5.412;2022-09-09T07:37:04;5.17;;;3.10;;
66189;SDS011;52992;52.084;5.412;2022-09-09T07:39:32;8.30;;;3.90;;
66189;SDS011;52992;52.084;5.412;2022-09-09T07:42:00;9.83;;;3.70;;
66189;SDS011;52992;52.084;5.412;2022-09-09T07:44:27;8.37;;;4.03;;
66189;SDS011;52992;52.084;5.412;2022-09-09T07:47:05;10.20;;;4.03;;
66189;SDS011;52992;52.084;5.412;2022-09-09T07:49:42;10.87;;;3.57;;
66189;SDS011;52992;52.084;5.412;2022-09-09T07:52:09;7.07;;;3.60;;
66189;SDS011;52992;52.084;5.412;2022-09-09T07:54:41;7.60;;;3.80;;
66189;SDS011;52992;52.084;5.412;2022-09-09T07:57:09;7.87;;;3.40;;
66189;SDS011;52992;52.084;5.412;2022-09-09T07:59:36;6.33;;;3.43;;
66189;SDS011;52992;52.084;5.412;2022-09-09T08:02:03;6.23;;;3.30;;
66189;SDS011;52992;52.084;5.412;2022-09-09T08:04:33;5.77;;;3.20;;
66189;SDS011;52992;52.084;5.412;2022-09-09T08:07:02;11.53;;;3.60;;
66189;SDS011;52992;52.084;5.412;2022-09-09T08:09:35;6.23;;;3.17;;
66189;SDS011;52992;52.084;5.412;2022-09-09T08:12:08;5.50;;;2.90;;
66189;SDS011;52992;52.084;5.412;2022-09-09T08:14:35;7.37;;;3.10;;
66189;SDS011;52992;52.084;5.412;2022-09-09T08:17:02;6.67;;;3.20;;
66189;SDS011;52992;52.084;5.412;2022-09-09T08:19:31;7.13;;;3.30;;
66189;SDS011;52992;52.084;5.412;2022-09-09T08:22:04;6.03;;;3.43;;
66189;SDS011;52992;52.084;5.412;2022-09-09T08:24:33;6.50;;;3.13;;
66189;SDS011;52992;52.084;5.412;2022-09-09T08:27:00;7.47;;;3.23;;
66189;SDS011;52992;52.084;5.412;2022-09-09T08:29:27;10.27;;;3.13;;
66189;SDS011;52992;52.084;5.412;2022-09-09T08:31:56;5.97;;;3.20;;
66189;SDS011;52992;52.084;5.412;2022-09-09T08:34:25;10.80;;;3.57;;
66189;SDS011;52992;52.084;5.412;2022-09-09T08:36:55;5.63;;;2.97;;
66189;SDS011;52992;52.084;5.412;2022-09-09T08:39:28;4.53;;;2.70;;
66189;SDS011;52992;52.084;5.412;2022-09-09T08:53:14;6.50;;;3.10;;
66189;SDS011;52992;52.084;5.412;2022-09-09T08:55:56;9.23;;;3.10;;
66189;SDS011;52992;52.084;5.412;2022-09-09T08:58:50;4.77;;;2.40;;
66189;SDS011;52992;52.084;5.412;2022-09-09T09:01:38;6.43;;;2.50;;
66189;SDS011;52992;52.084;5.412;2022-09-09T09:07:26;5.33;;;2.60;;
66189;SDS011;52992;52.084;5.412;2022-09-09T09:13:19;8.23;;;3.33;;
66189;SDS011;52992;52.084;5.412;2022-09-09T09:16:00;9.33;;;2.30;;
66189;SDS011;52992;52.084;5.412;2022-09-09T09:18:44;4.97;;;2.93;;
66189;SDS011;52992;52.084;5.412;2022-09-09T09:24:16;7.07;;;2.80;;
66189;SDS011;52992;52.084;5.412;2022-09-09T09:26:59;6.38;;;2.97;;
66189;SDS011;52992;52.084;5.412;2022-09-09T09:29:33;4.07;;;2.30;;
66189;SDS011;52992;52.084;5.412;2022-09-09T09:32:21;7.80;;;2.80;;
66189;SDS011;52992;52.084;5.412;2022-09-09T09:34:51;6.90;;;2.60;;
66189;SDS011;52992;52.084;5.412;2022-09-09T09:37:26;8.03;;;2.57;;
66189;SDS011;52992;52.084;5.412;2022-09-09T09:40:07;4.17;;;2.37;;
66189;SDS011;52992;52.084;5.412;2022-09-09T09:42:47;3.93;;;2.57;;
66189;SDS011;52992;52.084;5.412;2022-09-09T09:45:32;4.63;;;2.40;;
66189;SDS011;52992;52.084;5.412;2022-09-09T09:48:03;9.17;;;2.90;;
66189;SDS011;52992;52.084;5.412;2022-09-09T09:50:35;5.73;;;2.50;;
66189;SDS011;52992;52.084;5.412;2022-09-09T09:53:17;5.07;;;2.70;;
66189;SDS011;52992;52.084;5.412;2022-09-09T09:56:06;5.90;;;2.30;;
66189;SDS011;52992;52.084;5.412;2022-09-09T10:01:22;6.17;;;2.50;;
66189;SDS011;52992;52.084;5.412;2022-09-09T10:04:03;6.13;;;2.40;;
66189;SDS011;52992;52.084;5.412;2022-09-09T10:06:47;5.53;;;2.43;;
66189;SDS011;52992;52.084;5.412;2022-09-09T10:09:21;5.73;;;2.77;;
66189;SDS011;52992;52.084;5.412;2022-09-09T10:14:46;5.40;;;2.57;;
66189;SDS011;52992;52.084;5.412;2022-09-09T10:26:53;9.90;;;2.93;;
66189;SDS011;52992;52.084;5.412;2022-09-09T10:46:13;9.03;;;3.13;;
66189;SDS011;52992;52.084;5.412;2022-09-09T10:51:38;7.17;;;3.10;;
66189;SDS011;52992;52.084;5.412;2022-09-09T10:54:32;5.07;;;3.23;;
66189;SDS011;52992;52.084;5.412;2022-09-09T10:59:49;6.63;;;3.77;;
66189;SDS011;52992;52.084;5.412;2022-09-09T11:02:22;5.20;;;3.20;;
66189;SDS011;52992;52.084;5.412;2022-09-09T11:05:03;7.73;;;3.80;;
66189;SDS011;52992;52.084;5.412;2022-09-09T11:07:38;7.33;;;3.40;;
66189;SDS011;52992;52.084;5.412;2022-09-09T11:12:50;5.50;;;3.23;;
66189;SDS011;52992;52.084;5.412;2022-09-09T11:15:31;9.23;;;3.27;;
66189;SDS011;52992;52.084;5.412;2022-09-09T11:18:05;8.07;;;2.90;;
66189;SDS011;52992;52.084;5.412;2022-09-09T11:20:37;3.57;;;2.73;;
66189;SDS011;52992;52.084;5.412;2022-09-09T11:23:06;5.37;;;2.70;;
66189;SDS011;52992;52.084;5.412;2022-09-09T11:25:51;5.37;;;2.97;;
66189;SDS011;52992;52.084;5.412;2022-09-09T11:34:12;4.43;;;2.67;;
66189;SDS011;52992;52.084;5.412;2022-09-09T11:42:46;5.47;;;2.90;;
66189;SDS011;52992;52.084;5.412;2022-09-09T11:47:55;5.60;;;2.67;;
66189;SDS011;52992;52.084;5.412;2022-09-09T11:52:50;7.00;;;3.33;;
66189;SDS011;52992;52.084;5.412;2022-09-09T11:55:29;8.17;;;3.33;;
66189;SDS011;52992;52.084;5.412;2022-09-09T11:57:59;4.87;;;2.83;;
66189;SDS011;52992;52.084;5.412;2022-09-09T12:03:04;7.03;;;3.03;;
66189;SDS011;52992;52.084;5.412;2022-09-09T12:05:41;7.50;;;3.47;;
66189;SDS011;52992;52.084;5.412;2022-09-09T12:08:11;3.43;;;2.93;;
66189;SDS011;52992;52.084;5.412;2022-09-09T12:10:54;5.70;;;3.23;;
66189;SDS011;52992;52.084;5.412;2022-09-09T12:13:24;7.80;;;3.50;;
66189;SDS011;52992;52.084;5.412;2022-09-09T12:15:53;5.80;;;3.97;;
66189;SDS011;52992;52.084;5.412;2022-09-09T12:18:32;7.93;;;3.33;;
66189;SDS011;52992;52.084;5.412;2022-09-09T12:23:46;6.83;;;3.03;;
66189;SDS011;52992;52.084;5.412;2022-09-09T12:31:35;9.53;;;4.33;;
66189;SDS011;52992;52.084;5.412;2022-09-09T12:39:51;5.20;;;3.27;;
66189;SDS011;52992;52.084;5.412;2022-09-09T12:42:22;7.00;;;3.53;;
66189;SDS011;52992;52.084;5.412;2022-09-09T12:44:53;6.20;;;3.53;;
66189;SDS011;52992;52.084;5.412;2022-09-09T12:49:59;8.27;;;3.70;;
66189;SDS011;52992;52.084;5.412;2022-09-09T12:52:31;11.23;;;3.30;;
66189;SDS011;52992;52.084;5.412;2022-09-09T12:55:01;5.47;;;2.83;;
66189;SDS011;52992;52.084;5.412;2022-09-09T12:57:37;6.37;;;3.00;;
66189;SDS011;52992;52.084;5.412;2022-09-09T13:00:07;6.70;;;3.17;;
66189;SDS011;52992;52.084;5.412;2022-09-09T13:07:49;4.70;;;2.27;;
66189;SDS011;52992;52.084;5.412;2022-09-09T13:10:24;3.60;;;2.20;;
66189;SDS011;52992;52.084;5.412;2022-09-09T13:13:19;10.13;;;2.60;;
66189;SDS011;52992;52.084;5.412;2022-09-09T13:15:54;3.97;;;2.53;;
66189;SDS011;52992;52.084;5.412;2022-09-09T13:18:23;3.27;;;2.63;;
66189;SDS011;52992;52.084;5.412;2022-09-09T13:20:55;3.87;;;2.50;;
66189;SDS011;52992;52.084;5.412;2022-09-09T13:23:26;6.23;;;2.17;;
66189;SDS011;52992;52.084;5.412;2022-09-09T13:25:56;4.50;;;2.47;;
66189;SDS011;52992;52.084;5.412;2022-09-09T13:28:28;4.63;;;2.27;;
66189;SDS011;52992;52.084;5.412;2022-09-09T13:31:03;5.97;;;2.83;;
66189;SDS011;52992;52.084;5.412;2022-09-09T13:33:33;4.03;;;2.50;;
66189;SDS011;52992;52.084;5.412;2022-09-09T13:36:04;3.67;;;2.27;;
66189;SDS011;52992;52.084;5.412;2022-09-09T13:38:35;6.23;;;2.60;;
66189;SDS011;52992;52.084;5.412;2022-09-09T13:41:21;6.20;;;3.10;;
66189;SDS011;52992;52.084;5.412;2022-09-09T13:43:50;4.27;;;2.60;;
66189;SDS011;52992;52.084;5.412;2022-09-09T13:46:34;5.27;;;2.93;;
66189;SDS011;52992;52.084;5.412;2022-09-09T13:51:41;4.07;;;2.77;;
66189;SDS011;52992;52.084;5.412;2022-09-09T13:54:13;3.70;;;2.37;;
66189;SDS011;52992;52.084;5.412;2022-09-09T13:56:42;3.97;;;2.40;;
66189;SDS011;52992;52.084;5.412;2022-09-09T13:59:13;5.83;;;2.70;;
66189;SDS011;52992;52.084;5.412;2022-09-09T14:01:41;6.17;;;2.60;;
66189;SDS011;52992;52.084;5.412;2022-09-09T14:04:08;6.73;;;2.43;;
66189;SDS011;52992;52.084;5.412;2022-09-09T14:06:36;4.10;;;2.93;;
66189;SDS011;52992;52.084;5.412;2022-09-09T14:09:09;4.47;;;2.93;;
66189;SDS011;52992;52.084;5.412;2022-09-09T14:11:38;6.77;;;2.60;;
66189;SDS011;52992;52.084;5.412;2022-09-09T14:14:05;4.20;;;2.50;;
66189;SDS011;52992;52.084;5.412;2022-09-09T14:16:31;5.67;;;2.80;;
66189;SDS011;52992;52.084;5.412;2022-09-09T14:18:58;5.13;;;2.20;;
66189;SDS011;52992;52.084;5.412;2022-09-09T14:21:26;3.67;;;2.50;;
66189;SDS011;52992;52.084;5.412;2022-09-09T14:23:53;5.23;;;3.00;;
66189;SDS011;52992;52.084;5.412;2022-09-09T14:26:21;6.10;;;3.10;;
66189;SDS011;52992;52.084;5.412;2022-09-09T14:28:48;6.00;;;3.20;;
66189;SDS011;52992;52.084;5.412;2022-09-09T14:31:23;6.53;;;3.27;;
66189;SDS011;52992;52.084;5.412;2022-09-09T14:33:51;6.67;;;3.40;;
66189;SDS011;52992;52.084;5.412;2022-09-09T14:36:18;4.17;;;2.90;;
66189;SDS011;52992;52.084;5.412;2022-09-09T14:38:45;3.73;;;3.10;;
66189;SDS011;52992;52.084;5.412;2022-09-09T14:41:13;5.10;;;3.00;;
66189;SDS011;52992;52.084;5.412;2022-09-09T14:43:44;3.23;;;2.90;;
66189;SDS011;52992;52.084;5.412;2022-09-09T14:46:12;4.50;;;2.83;;
66189;SDS011;52992;52.084;5.412;2022-09-09T14:48:41;5.77;;;3.20;;
66189;SDS011;52992;52.084;5.412;2022-09-09T14:51:11;5.77;;;3.03;;
66189;SDS011;52992;52.084;5.412;2022-09-09T14:53:43;5.23;;;3.63;;
66189;SDS011;52992;52.084;5.412;2022-09-09T14:58:38;7.87;;;3.90;;
66189;SDS011;52992;52.084;5.412;2022-09-09T15:01:06;8.03;;;4.23;;
66189;SDS011;52992;52.084;5.412;2022-09-09T15:03:37;5.73;;;3.70;;
66189;SDS011;52992;52.084;5.412;2022-09-09T15:06:06;10.03;;;4.37;;
66189;SDS011;52992;52.084;5.412;2022-09-09T15:08:35;7.57;;;4.30;;
66189;SDS011;52992;52.084;5.412;2022-09-09T15:11:08;7.17;;;4.70;;
66189;SDS011;52992;52.084;5.412;2022-09-09T15:13:36;5.90;;;3.87;;
66189;SDS011;52992;52.084;5.412;2022-09-09T15:16:04;9.57;;;4.47;;
66189;SDS011;52992;52.084;5.412;2022-09-09T15:18:33;5.20;;;2.90;;
66189;SDS011;52992;52.084;5.412;2022-09-09T15:21:05;4.63;;;2.80;;
66189;SDS011;52992;52.084;5.412;2022-09-09T15:23:32;3.83;;;2.10;;
66189;SDS011;52992;52.084;5.412;2022-09-09T15:25:59;3.10;;;2.20;;
66189;SDS011;52992;52.084;5.412;2022-09-09T15:28:26;2.43;;;2.00;;
66189;SDS011;52992;52.084;5.412;2022-09-09T15:30:53;6.17;;;2.23;;
66189;SDS011;52992;52.084;5.412;2022-09-09T15:33:21;5.57;;;2.97;;
66189;SDS011;52992;52.084;5.412;2022-09-09T15:35:48;5.87;;;3.53;;
66189;SDS011;52992;52.084;5.412;2022-09-09T15:38:16;3.83;;;2.80;;
66189;SDS011;52992;52.084;5.412;2022-09-09T15:40:43;2.70;;;2.00;;
66189;SDS011;52992;52.084;5.412;2022-09-09T15:43:10;2.50;;;2.30;;
66189;SDS011;52992;52.084;5.412;2022-09-09T15:45:37;3.97;;;2.53;;
66189;SDS011;52992;52.084;5.412;2022-09-09T15:48:04;2.77;;;2.47;;
66189;SDS011;52992;52.084;5.412;2022-09-09T15:50:31;4.00;;;2.83;;
66189;SDS011;52992;52.084;5.412;2022-09-09T15:52:58;5.67;;;2.63;;
66189;SDS011;52992;52.084;5.412;2022-09-09T15:55:25;5.83;;;2.67;;
66189;SDS011;52992;52.084;5.412;2022-09-09T15:57:52;4.07;;;2.70;;
66189;SDS011;52992;52.084;5.412;2022-09-09T16:00:19;4.00;;;2.97;;
66189;SDS011;52992;52.084;5.412;2022-09-09T16:02:47;3.97;;;2.70;;
66189;SDS011;52992;52.084;5.412;2022-09-09T16:05:14;3.00;;;2.70;;
66189;SDS011;52992;52.084;5.412;2022-09-09T16:07:41;5.23;;;3.00;;
66189;SDS011;52992;52.084;5.412;2022-09-09T16:10:08;3.97;;;2.97;;
66189;SDS011;52992;52.084;5.412;2022-09-09T16:12:36;2.60;;;2.40;;
66189;SDS011;52992;52.084;5.412;2022-09-09T16:15:04;4.17;;;2.50;;
66189;SDS011;52992;52.084;5.412;2022-09-09T16:17:31;2.33;;;2.13;;
66189;SDS011;52992;52.084;5.412;2022-09-09T16:20:03;3.57;;;2.37;;
66189;SDS011;52992;52.084;5.412;2022-09-09T16:22:32;3.53;;;2.30;;
66189;SDS011;52992;52.084;5.412;2022-09-09T16:24:59;5.43;;;2.57;;
66189;SDS011;52992;52.084;5.412;2022-09-09T16:27:26;3.03;;;2.10;;
66189;SDS011;52992;52.084;5.412;2022-09-09T16:29:52;4.67;;;3.03;;
66189;SDS011;52992;52.084;5.412;2022-09-09T16:32:19;3.90;;;2.83;;
66189;SDS011;52992;52.084;5.412;2022-09-09T16:34:46;5.10;;;3.50;;
66189;SDS011;52992;52.084;5.412;2022-09-09T16:37:13;5.97;;;3.60;;
66189;SDS011;52992;52.084;5.412;2022-09-09T16:39:40;5.33;;;2.70;;
66189;SDS011;52992;52.084;5.412;2022-09-09T16:42:06;4.57;;;3.00;;
66189;SDS011;52992;52.084;5.412;2022-09-09T16:44:33;3.23;;;2.83;;
66189;SDS011;52992;52.084;5.412;2022-09-09T16:47:00;3.23;;;2.10;;
66189;SDS011;52992;52.084;5.412;2022-09-09T16:49:27;2.87;;;2.57;;
66189;SDS011;52992;52.084;5.412;2022-09-09T16:51:57;3.53;;;2.80;;
66189;SDS011;52992;52.084;5.412;2022-09-09T16:54:25;4.47;;;3.30;;
66189;SDS011;52992;52.084;5.412;2022-09-09T16:56:53;7.70;;;3.37;;
66189;SDS011;52992;52.084;5.412;2022-09-09T16:59:20;6.93;;;4.00;;
66189;SDS011;52992;52.084;5.412;2022-09-09T17:01:48;4.27;;;3.10;;
66189;SDS011;52992;52.084;5.412;2022-09-09T17:04:17;6.50;;;3.20;;
66189;SDS011;52992;52.084;5.412;2022-09-09T17:06:47;3.30;;;3.00;;
66189;SDS011;52992;52.084;5.412;2022-09-09T17:09:18;5.57;;;3.03;;
66189;SDS011;52992;52.084;5.412;2022-09-09T17:11:46;5.07;;;3.00;;
66189;SDS011;52992;52.084;5.412;2022-09-09T17:14:15;3.50;;;3.10;;
66189;SDS011;52992;52.084;5.412;2022-09-09T17:16:43;13.43;;;3.50;;
66189;SDS011;52992;52.084;5.412;2022-09-09T17:19:11;6.90;;;3.43;;
66189;SDS011;52992;52.084;5.412;2022-09-09T17:21:38;6.40;;;3.50;;
66189;SDS011;52992;52.084;5.412;2022-09-09T17:24:25;5.00;;;3.80;;
66189;SDS011;52992;52.084;5.412;2022-09-09T17:26:53;7.97;;;4.37;;
66189;SDS011;52992;52.084;5.412;2022-09-09T17:29:20;6.70;;;4.40;;
66189;SDS011;52992;52.084;5.412;2022-09-09T17:31:47;5.27;;;4.03;;